Time;durP1;ratioP1;P1;durP2;ratioP2;P2;SDS_P1;SDS_P2;PMS_P1;PMS_P2;Temp;Humidity;BMP_temperature;BMP_pressure;BME280_temperature;BME280_humidity;BME280_pressure;Samples;Min_cycle;Max_cycle;Signal;HPM_P1;HPM_P2
2021/03/02 00:01:43;;;;;;;5.32;2.55;;;;;;;;;;5116019;28;20023;-58
2021/03/02 00:04:10;;;;;;;4.22;2.80;;;;;;;;;;5116374;28;20027;-58
2021/03/02 00:06:37;;;;;;;6.30;2.97;;;;;;;;;;5116128;28;20038;-58
2021/03/02 00:09:04;;;;;;;4.93;3.20;;;;;;;;;;5115870;28;20027;-58
2021/03/02 00:11:31;;;;;;;6.10;2.90;;;;;;;;;;5115975;28;20416;-58
2021/03/02 00:13:58;;;;;;;4.95;3.15;;;;;;;;;;5115957;28;20432;-58
2021/03/02 00:16:26;;;;;;;8.60;3.30;;;;;;;;;;5115958;28;20028;-58
2021/03/02 00:18:56;;;;;;;10.52;3.13;;;;;;;;;;5115931;28;20066;-58
2021/03/02 00:21:29;;;;;;;7.60;3.10;;;;;;;;;;5115828;28;20251;-57
2021/03/02 00:24:00;;;;;;;4.90;2.85;;;;;;;;;;5115627;28;20042;-58
2021/03/02 00:26:28;;;;;;;5.32;2.67;;;;;;;;;;5115681;28;20077;-58
2021/03/02 00:28:56;;;;;;;7.75;3.60;;;;;;;;;;5115560;28;20019;-57
2021/03/02 00:31:24;;;;;;;8.73;2.78;;;;;;;;;;5115598;28;20034;-58
2021/03/02 00:33:51;;;;;;;3.95;2.75;;;;;;;;;;5115618;28;20024;-58
2021/03/02 00:36:17;;;;;;;6.00;2.90;;;;;;;;;;5115576;28;20035;-58
2021/03/02 00:38:44;;;;;;;7.38;3.05;;;;;;;;;;5115381;28;20028;-58
2021/03/02 00:41:11;;;;;;;5.57;2.40;;;;;;;;;;5115520;28;20099;-58
2021/03/02 00:43:38;;;;;;;8.55;2.65;;;;;;;;;;5115073;28;20099;-58
2021/03/02 00:46:04;;;;;;;8.23;3.08;;;;;;;;;;5115378;28;20059;-58
2021/03/02 00:48:31;;;;;;;7.15;3.10;;;;;;;;;;5115423;28;20023;-58
2021/03/02 00:50:58;;;;;;;9.40;2.88;;;;;;;;;;5115061;28;20466;-58
2021/03/02 00:53:25;;;;;;;5.47;2.60;;;;;;;;;;5096913;28;20384;-58
2021/03/02 00:55:51;;;;;;;6.32;2.65;;;;;;;;;;5116158;27;20055;-58
2021/03/02 00:58:18;;;;;;;10.60;3.25;;;;;;;;;;5115251;28;20152;-58
2021/03/02 01:00:45;;;;;;;9.48;3.08;;;;;;;;;;5115149;28;20016;-58
2021/03/02 01:03:12;;;;;;;6.25;2.85;;;;;;;;;;5115059;28;20224;-58
2021/03/02 01:05:39;;;;;;;4.78;2.72;;;;;;;;;;5114849;28;20073;-58
2021/03/02 01:08:06;;;;;;;16.15;4.07;;;;;;;;;;5096826;28;20024;-58
2021/03/02 01:10:32;;;;;;;7.32;2.40;;;;;;;;;;5114895;28;20030;-58
2021/03/02 01:12:59;;;;;;;6.88;2.47;;;;;;;;;;5114723;28;20020;-58
2021/03/02 01:15:26;;;;;;;4.72;2.55;;;;;;;;;;5096423;28;20062;-58
2021/03/02 01:17:53;;;;;;;7.60;2.73;;;;;;;;;;5114780;28;20026;-57
2021/03/02 01:20:20;;;;;;;5.30;2.40;;;;;;;;;;5114733;28;20034;-57
2021/03/02 01:22:46;;;;;;;8.23;2.30;;;;;;;;;;5114601;28;20102;-57
2021/03/02 01:25:16;;;;;;;5.10;2.80;;;;;;;;;;5114551;28;20030;-58
2021/03/02 01:27:43;;;;;;;5.60;2.20;;;;;;;;;;5114553;28;20064;-57
2021/03/02 01:30:11;;;;;;;6.17;2.47;;;;;;;;;;5114572;28;20076;-58
2021/03/02 01:32:38;;;;;;;4.83;2.20;;;;;;;;;;5114524;28;20103;-58
2021/03/02 01:35:12;;;;;;;7.80;2.40;;;;;;;;;;5114325;28;20031;-58
2021/03/02 01:37:39;;;;;;;7.75;2.33;;;;;;;;;;5114394;28;20103;-57
2021/03/02 01:40:09;;;;;;;13.67;3.57;;;;;;;;;;5114383;28;20028;-58
2021/03/02 01:42:36;;;;;;;9.63;2.10;;;;;;;;;;5114296;28;20027;-57
2021/03/02 01:45:04;;;;;;;5.53;2.20;;;;;;;;;;5114128;28;20027;-57
2021/03/02 01:47:31;;;;;;;6.37;2.67;;;;;;;;;;5114112;28;20016;-57
2021/03/02 01:49:58;;;;;;;6.23;2.20;;;;;;;;;;5114005;28;20023;-57
2021/03/02 01:52:25;;;;;;;4.83;2.17;;;;;;;;;;5114137;28;20028;-58
2021/03/02 01:54:51;;;;;;;8.33;2.47;;;;;;;;;;5114289;27;20027;-58
2021/03/02 01:57:18;;;;;;;4.43;2.90;;;;;;;;;;5114052;28;20032;-57
2021/03/02 01:59:45;;;;;;;12.60;3.63;;;;;;;;;;5113922;28;20069;-57
2021/03/02 02:02:17;;;;;;;15.30;4.40;;;;;;;;;;5113906;28;20024;-57
2021/03/02 02:04:46;;;;;;;12.20;4.70;;;;;;;;;;5114092;28;20039;-57
2021/03/02 02:07:16;;;;;;;12.97;4.67;;;;;;;;;;5113837;28;20027;-57
2021/03/02 02:09:52;;;;;;;11.30;4.90;;;;;;;;;;5113831;28;20354;-57
2021/03/02 02:12:26;;;;;;;9.27;4.47;;;;;;;;;;5113809;28;20024;-57
2021/03/02 02:14:55;;;;;;;9.80;4.40;;;;;;;;;;5113710;28;20028;-57
2021/03/02 02:17:31;;;;;;;13.03;5.27;;;;;;;;;;5113662;28;20068;-57
2021/03/02 02:20:02;;;;;;;8.90;5.47;;;;;;;;;;5113630;28;20077;-57
2021/03/02 02:22:29;;;;;;;21.10;5.70;;;;;;;;;;5113585;28;20022;-57
2021/03/02 02:25:16;;;;;;;14.47;5.27;;;;;;;;;;5113521;28;20108;-57
2021/03/02 02:27:43;;;;;;;9.93;5.63;;;;;;;;;;5062482;28;20401;-57
2021/03/02 02:30:10;;;;;;;14.57;5.73;;;;;;;;;;5113518;28;20024;-57
2021/03/02 02:32:38;;;;;;;11.07;5.60;;;;;;;;;;5113531;28;20020;-57
2021/03/02 02:35:06;;;;;;;11.23;4.80;;;;;;;;;;5113270;28;20461;-57
2021/03/02 02:37:33;;;;;;;11.23;5.43;;;;;;;;;;5113433;28;20023;-57
2021/03/02 02:40:02;;;;;;;7.73;4.53;;;;;;;;;;5113413;28;20043;-57
2021/03/02 02:42:29;;;;;;;7.37;5.03;;;;;;;;;;5113394;28;20015;-57
2021/03/02 02:44:57;;;;;;;13.83;5.43;;;;;;;;;;5113268;28;20042;-57
2021/03/02 02:47:24;;;;;;;13.40;5.53;;;;;;;;;;5113367;28;20024;-57
2021/03/02 02:49:52;;;;;;;7.07;5.10;;;;;;;;;;5113310;28;20030;-57
2021/03/02 02:52:19;;;;;;;12.50;5.67;;;;;;;;;;5113938;28;20019;-57
2021/03/02 02:54:47;;;;;;;12.83;5.23;;;;;;;;;;5113153;28;20096;-57
2021/03/02 02:57:16;;;;;;;9.47;5.27;;;;;;;;;;5113119;27;20036;-57
2021/03/02 02:59:43;;;;;;;8.30;5.47;;;;;;;;;;5113162;28;20024;-57
2021/03/02 03:02:15;;;;;;;7.33;4.93;;;;;;;;;;5113066;28;20044;-57
2021/03/02 03:04:43;;;;;;;10.13;5.40;;;;;;;;;;5112931;28;20066;-57
2021/03/02 03:07:13;;;;;;;11.80;6.00;;;;;;;;;;5116333;28;20096;-57
2021/03/02 03:09:41;;;;;;;9.97;6.07;;;;;;;;;;5117342;28;20027;-57
2021/03/02 03:12:11;;;;;;;14.57;5.00;;;;;;;;;;5117175;28;20021;-57
2021/03/02 03:14:42;;;;;;;7.00;4.50;;;;;;;;;;5117123;28;20473;-57
2021/03/02 03:17:11;;;;;;;13.40;4.50;;;;;;;;;;5116976;28;20477;-57
2021/03/02 03:19:38;;;;;;;8.13;4.90;;;;;;;;;;5117184;28;20048;-57
2021/03/02 03:22:05;;;;;;;8.83;4.27;;;;;;;;;;5117065;28;20069;-57
2021/03/02 03:24:32;;;;;;;8.40;4.10;;;;;;;;;;5116758;28;20015;-57
2021/03/02 03:26:59;;;;;;;7.33;4.30;;;;;;;;;;5116714;28;20028;-57
2021/03/02 03:29:26;;;;;;;5.70;3.60;;;;;;;;;;5116640;28;20389;-57
2021/03/02 03:31:54;;;;;;;5.17;3.77;;;;;;;;;;5116722;28;20023;-57
2021/03/02 03:34:21;;;;;;;10.33;4.13;;;;;;;;;;5117047;28;20035;-57
2021/03/02 03:36:48;;;;;;;13.63;4.50;;;;;;;;;;5116581;28;20105;-57
2021/03/02 03:39:15;;;;;;;6.70;4.63;;;;;;;;;;5098240;28;20031;-57
2021/03/02 03:41:42;;;;;;;7.67;4.60;;;;;;;;;;5116687;28;20043;-57
2021/03/02 03:44:10;;;;;;;6.53;3.77;;;;;;;;;;5116585;28;20020;-57
2021/03/02 03:46:37;;;;;;;6.60;4.37;;;;;;;;;;5116484;28;20034;-57
2021/03/02 03:49:04;;;;;;;7.33;4.87;;;;;;;;;;5116607;28;20022;-57
2021/03/02 03:51:31;;;;;;;5.87;4.53;;;;;;;;;;5116488;28;20047;-57
2021/03/02 03:53:58;;;;;;;7.17;4.80;;;;;;;;;;5116311;28;20020;-57
2021/03/02 03:56:25;;;;;;;9.10;5.20;;;;;;;;;;5117146;27;20409;-57
2021/03/02 03:58:52;;;;;;;7.53;5.10;;;;;;;;;;5116346;28;20023;-57
2021/03/02 04:01:19;;;;;;;6.27;4.87;;;;;;;;;;5116187;28;20531;-57
2021/03/02 04:03:47;;;;;;;8.13;6.03;;;;;;;;;;5116225;28;20054;-57
2021/03/02 04:06:14;;;;;;;11.97;6.33;;;;;;;;;;5116214;28;20035;-57
2021/03/02 04:08:41;;;;;;;9.43;5.20;;;;;;;;;;5116143;28;20020;-57
2021/03/02 04:11:10;;;;;;;10.70;5.73;;;;;;;;;;5115934;28;20020;-57
2021/03/02 04:13:37;;;;;;;9.80;6.20;;;;;;;;;;5115932;28;20016;-57
2021/03/02 04:16:04;;;;;;;12.67;6.10;;;;;;;;;;5115727;28;20027;-57
2021/03/02 04:18:32;;;;;;;10.53;5.23;;;;;;;;;;5115610;28;20448;-57
2021/03/02 04:20:59;;;;;;;6.57;5.37;;;;;;;;;;5115970;28;20084;-57
2021/03/02 04:23:26;;;;;;;8.27;5.87;;;;;;;;;;5115889;28;20026;-57
2021/03/02 04:25:53;;;;;;;7.70;5.47;;;;;;;;;;5115772;28;20039;-57
2021/03/02 04:28:20;;;;;;;6.37;4.57;;;;;;;;;;5115611;28;20024;-56
2021/03/02 04:30:47;;;;;;;8.47;5.60;;;;;;;;;;5115738;28;20046;-55
2021/03/02 04:33:17;;;;;;;6.97;4.90;;;;;;;;;;5115681;28;20031;-56
2021/03/02 04:35:44;;;;;;;6.60;5.27;;;;;;;;;;5115451;28;20019;-55
2021/03/02 04:38:11;;;;;;;11.13;6.20;;;;;;;;;;5115663;28;20470;-55
2021/03/02 04:40:38;;;;;;;7.90;5.37;;;;;;;;;;5115532;28;20027;-54
2021/03/02 04:43:05;;;;;;;11.30;6.30;;;;;;;;;;5115454;28;20158;-54
2021/03/02 04:45:32;;;;;;;10.13;5.43;;;;;;;;;;5115225;28;20042;-54
2021/03/02 04:48:01;;;;;;;6.40;4.87;;;;;;;;;;5115365;28;20028;-54
2021/03/02 04:50:28;;;;;;;7.93;4.67;;;;;;;;;;5115213;28;20027;-55
2021/03/02 04:52:55;;;;;;;7.80;5.77;;;;;;;;;;5115181;28;20028;-54
2021/03/02 04:55:22;;;;;;;11.10;6.87;;;;;;;;;;5097673;27;20023;-54
2021/03/02 04:57:55;;;;;;;9.13;6.40;;;;;;;;;;5097952;27;20052;-55
2021/03/02 05:00:22;;;;;;;7.93;4.90;;;;;;;;;;5115123;28;20157;-55
2021/03/02 05:02:49;;;;;;;9.77;6.23;;;;;;;;;;5114946;28;20038;-56
2021/03/02 05:05:16;;;;;;;9.60;5.67;;;;;;;;;;5114769;28;20048;-56
2021/03/02 05:07:43;;;;;;;10.50;7.03;;;;;;;;;;5114015;28;20036;-56
2021/03/02 05:10:10;;;;;;;14.43;6.60;;;;;;;;;;5114949;28;20489;-56
2021/03/02 05:12:37;;;;;;;9.40;7.60;;;;;;;;;;5114812;28;20034;-56
2021/03/02 05:15:04;;;;;;;9.07;7.33;;;;;;;;;;5114657;28;20028;-56
2021/03/02 05:17:31;;;;;;;10.23;7.27;;;;;;;;;;5114663;28;20084;-56
2021/03/02 05:19:58;;;;;;;10.63;7.60;;;;;;;;;;5114612;28;20019;-56
2021/03/02 05:22:25;;;;;;;10.60;7.20;;;;;;;;;;5114685;28;20020;-56
2021/03/02 05:24:52;;;;;;;10.10;7.30;;;;;;;;;;5114492;28;20084;-56
2021/03/02 05:27:21;;;;;;;10.60;6.53;;;;;;;;;;5114504;28;20030;-56
2021/03/02 05:29:48;;;;;;;8.97;6.30;;;;;;;;;;5113732;28;20535;-56
2021/03/02 05:32:15;;;;;;;9.00;7.10;;;;;;;;;;5114485;28;20051;-56
2021/03/02 05:34:42;;;;;;;9.53;6.90;;;;;;;;;;5114295;28;20016;-56
2021/03/02 05:37:22;;;;;;;9.20;6.70;;;;;;;;;;5114404;28;20019;-56
2021/03/02 05:39:49;;;;;;;12.17;6.50;;;;;;;;;;5114186;28;20032;-56
2021/03/02 05:42:16;;;;;;;8.33;6.27;;;;;;;;;;5114198;28;20089;-56
2021/03/02 05:44:46;;;;;;;12.63;7.23;;;;;;;;;;5114094;28;20119;-56
2021/03/02 05:47:14;;;;;;;9.03;6.20;;;;;;;;;;5114105;28;20020;-56
2021/03/02 05:49:44;;;;;;;13.27;6.17;;;;;;;;;;5114172;28;20393;-56
2021/03/02 05:52:12;;;;;;;9.27;7.07;;;;;;;;;;5113941;28;20020;-56
2021/03/02 05:54:40;;;;;;;8.80;7.20;;;;;;;;;;5114055;28;20024;-56
2021/03/02 05:57:07;;;;;;;9.37;7.07;;;;;;;;;;5114751;27;20126;-56
2021/03/02 05:59:34;;;;;;;9.57;7.17;;;;;;;;;;5113947;28;20051;-56
2021/03/02 06:02:01;;;;;;;13.07;7.20;;;;;;;;;;5113826;28;20019;-56
2021/03/02 06:04:28;;;;;;;10.63;7.67;;;;;;;;;;5113732;28;20120;-56
2021/03/02 06:07:01;;;;;;;8.17;7.17;;;;;;;;;;5113651;28;20028;-56
2021/03/02 06:09:29;;;;;;;10.23;8.37;;;;;;;;;;5113819;28;20027;-56
2021/03/02 06:12:05;;;;;;;11.87;8.80;;;;;;;;;;5113819;28;20051;-56
2021/03/02 06:14:36;;;;;;;10.93;7.47;;;;;;;;;;5113604;28;20027;-56
2021/03/02 06:17:04;;;;;;;9.77;7.57;;;;;;;;;;5113538;28;20023;-56
2021/03/02 06:19:40;;;;;;;11.50;7.97;;;;;;;;;;5113670;28;20032;-56
2021/03/02 06:22:27;;;;;;;14.73;8.43;;;;;;;;;;5113683;28;20024;-56
2021/03/02 06:24:54;;;;;;;10.40;7.90;;;;;;;;;;5112913;28;20036;-56
2021/03/02 06:27:20;;;;;;;11.30;7.70;;;;;;;;;;5095111;28;20107;-56
2021/03/02 06:30:07;;;;;;;12.27;7.93;;;;;;;;;;5113382;28;20501;-56
2021/03/02 06:32:40;;;;;;;9.63;7.30;;;;;;;;;;5113436;28;20030;-56
2021/03/02 06:35:08;;;;;;;12.43;8.33;;;;;;;;;;5113103;28;20027;-56
2021/03/02 06:37:44;;;;;;;12.90;7.77;;;;;;;;;;5113300;28;20433;-56
2021/03/02 06:40:13;;;;;;;13.17;8.33;;;;;;;;;;5113063;28;20027;-55
2021/03/02 06:42:43;;;;;;;10.70;7.73;;;;;;;;;;5113125;28;20088;-56
2021/03/02 06:45:13;;;;;;;16.40;9.33;;;;;;;;;;5113162;28;20035;-56
2021/03/02 06:47:43;;;;;;;10.50;7.23;;;;;;;;;;5113499;28;20039;-54
2021/03/02 06:50:13;;;;;;;10.63;7.43;;;;;;;;;;5113132;28;20028;-54
2021/03/02 06:52:41;;;;;;;11.70;8.00;;;;;;;;;;5113030;28;20423;-54
2021/03/02 06:55:20;;;;;;;12.77;7.93;;;;;;;;;;5113327;28;20083;-54
2021/03/02 06:57:47;;;;;;;9.40;7.40;;;;;;;;;;5114323;27;20493;-54
2021/03/02 07:00:16;;;;;;;11.90;8.07;;;;;;;;;;5113053;28;20393;-54
2021/03/02 07:02:44;;;;;;;11.77;9.00;;;;;;;;;;5113247;28;20073;-54
2021/03/02 07:05:15;;;;;;;11.27;7.43;;;;;;;;;;5094680;28;20511;-54
2021/03/02 07:07:43;;;;;;;11.90;8.40;;;;;;;;;;5112960;28;20382;-54
2021/03/02 07:10:16;;;;;;;9.20;7.50;;;;;;;;;;5111943;28;20039;-54
2021/03/02 07:12:45;;;;;;;12.67;7.60;;;;;;;;;;5112935;28;20023;-54
2021/03/02 07:15:14;;;;;;;17.47;8.03;;;;;;;;;;5112941;28;20034;-56
2021/03/02 07:17:44;;;;;;;12.33;8.67;;;;;;;;;;5112893;28;20020;-56
2021/03/02 07:20:18;;;;;;;10.97;8.37;;;;;;;;;;5112992;28;20023;-56
2021/03/02 07:22:50;;;;;;;11.20;7.68;;;;;;;;;;5112939;28;20053;-56
2021/03/02 07:25:24;;;;;;;12.13;8.13;;;;;;;;;;5112755;28;20031;-56
2021/03/02 07:27:52;;;;;;;18.70;8.37;;;;;;;;;;5111530;28;20028;-56
2021/03/02 07:30:20;;;;;;;11.77;8.90;;;;;;;;;;5112746;28;20028;-56
2021/03/02 07:32:50;;;;;;;13.87;9.87;;;;;;;;;;5112931;28;20031;-56
2021/03/02 07:35:18;;;;;;;9.90;7.60;;;;;;;;;;5112675;28;20389;-56
2021/03/02 07:37:45;;;;;;;12.63;7.67;;;;;;;;;;5112711;28;20102;-56
2021/03/02 07:40:13;;;;;;;14.13;8.00;;;;;;;;;;5112777;28;20024;-56
2021/03/02 07:42:40;;;;;;;12.07;8.40;;;;;;;;;;5112689;28;20436;-56
2021/03/02 07:45:09;;;;;;;11.90;8.10;;;;;;;;;;5112600;28;20043;-56
2021/03/02 07:47:42;;;;;;;10.83;8.53;;;;;;;;;;5112803;28;20083;-56
2021/03/02 07:50:35;;;;;;;11.90;8.53;;;;;;;;;;5112676;28;20537;-56
2021/03/02 07:53:20;;;;;;;11.20;8.87;;;;;;;;;;5111224;28;20101;-56
2021/03/02 07:55:47;;;;;;;8.65;7.13;;;;;;;;;;5116375;27;20039;-56
2021/03/02 07:58:18;;;;;;;16.60;9.17;;;;;;;;;;5115975;28;20436;-56
2021/03/02 08:00:48;;;;;;;14.20;9.70;;;;;;;;;;5116270;28;20020;-55
2021/03/02 08:03:19;;;;;;;13.50;9.40;;;;;;;;;;5116526;28;20020;-56
2021/03/02 08:05:47;;;;;;;12.83;9.10;;;;;;;;;;5116091;28;20557;-55
2021/03/02 08:08:26;;;;;;;11.67;7.60;;;;;;;;;;5116096;28;20098;-56
2021/03/02 08:10:54;;;;;;;14.93;8.80;;;;;;;;;;5116102;28;20066;-56
2021/03/02 08:13:38;;;;;;;11.27;8.67;;;;;;;;;;5116327;28;20107;-56
2021/03/02 08:16:08;;;;;;;11.83;8.43;;;;;;;;;;5115747;28;20020;-56
2021/03/02 08:18:36;;;;;;;9.90;7.53;;;;;;;;;;5115976;28;20073;-55
2021/03/02 08:21:09;;;;;;;12.40;8.20;;;;;;;;;;5116398;28;20094;-56
2021/03/02 08:23:49;;;;;;;9.90;7.37;;;;;;;;;;5115690;28;20107;-56
2021/03/02 08:26:32;;;;;;;13.80;9.83;;;;;;;;;;5115395;28;20036;-55
2021/03/02 08:29:25;;;;;;;11.97;8.93;;;;;;;;;;5115505;28;20031;-55
2021/03/02 08:31:52;;;;;;;13.27;8.80;;;;;;;;;;5111423;28;20028;-56
2021/03/02 08:34:20;;;;;;;13.97;9.13;;;;;;;;;;5115553;28;20023;-55
2021/03/02 08:36:51;;;;;;;15.70;8.87;;;;;;;;;;5115457;28;20385;-56
2021/03/02 08:39:19;;;;;;;11.97;7.80;;;;;;;;;;5115598;28;20026;-56
2021/03/02 08:41:47;;;;;;;12.70;8.47;;;;;;;;;;5115505;28;20028;-55
2021/03/02 08:44:32;;;;;;;14.63;8.93;;;;;;;;;;5115080;28;20492;-56
2021/03/02 08:47:01;;;;;;;12.95;8.48;;;;;;;;;;5115343;28;20080;-55
2021/03/02 08:49:28;;;;;;;11.47;8.30;;;;;;;;;;5115631;28;20027;-55
2021/03/02 08:52:01;;;;;;;12.00;7.90;;;;;;;;;;5115247;28;20024;-55
2021/03/02 08:54:28;;;;;;;10.90;8.67;;;;;;;;;;5115348;28;20108;-55
2021/03/02 08:57:02;;;;;;;11.93;8.80;;;;;;;;;;5115496;27;20063;-55
2021/03/02 08:59:30;;;;;;;11.70;9.33;;;;;;;;;;5115036;28;20024;-55
2021/03/02 09:01:57;;;;;;;12.57;9.83;;;;;;;;;;5115013;28;20027;-55
2021/03/02 09:04:25;;;;;;;14.23;10.23;;;;;;;;;;5115061;28;20035;-55
2021/03/02 09:06:52;;;;;;;13.57;9.43;;;;;;;;;;5114810;28;20095;-55
2021/03/02 09:09:22;;;;;;;11.07;9.43;;;;;;;;;;5114830;28;20018;-55
2021/03/02 09:11:53;;;;;;;14.87;9.87;;;;;;;;;;5114707;28;20031;-55
2021/03/02 09:14:28;;;;;;;13.27;10.67;;;;;;;;;;5114783;28;20035;-55
2021/03/02 09:16:58;;;;;;;13.75;9.98;;;;;;;;;;5114711;28;20015;-55
2021/03/02 09:19:32;;;;;;;11.83;9.03;;;;;;;;;;5114513;28;20433;-55
2021/03/02 09:22:03;;;;;;;11.67;8.83;;;;;;;;;;5114526;28;20024;-55
2021/03/02 09:24:31;;;;;;;11.57;9.60;;;;;;;;;;5114390;28;20023;-55
2021/03/02 09:27:03;;;;;;;12.43;10.13;;;;;;;;;;5114479;28;20027;-55
2021/03/02 09:29:32;;;;;;;17.13;11.30;;;;;;;;;;5114423;28;20016;-55
2021/03/02 09:32:03;;;;;;;14.10;9.57;;;;;;;;;;5114207;28;20036;-55
2021/03/02 09:34:49;;;;;;;13.50;10.10;;;;;;;;;;5114183;28;20085;-55
2021/03/02 09:37:18;;;;;;;11.93;9.43;;;;;;;;;;5113856;28;20052;-55
2021/03/02 09:40:05;;;;;;;12.47;9.97;;;;;;;;;;5114260;28;20423;-55
2021/03/02 09:42:33;;;;;;;15.97;9.60;;;;;;;;;;5114179;28;20047;-55
2021/03/02 09:45:01;;;;;;;17.87;12.13;;;;;;;;;;5114084;28;20389;-55
2021/03/02 09:47:29;;;;;;;14.97;9.97;;;;;;;;;;5114116;28;20503;-55
2021/03/02 09:49:58;;;;;;;14.43;10.80;;;;;;;;;;5114183;28;20020;-55
2021/03/02 09:52:29;;;;;;;13.30;9.80;;;;;;;;;;5114057;28;20026;-55
2021/03/02 09:55:12;;;;;;;14.33;10.30;;;;;;;;;;5113969;28;20023;-55
2021/03/02 09:57:58;;;;;;;13.90;10.03;;;;;;;;;;5114133;27;20101;-55
2021/03/02 10:00:29;;;;;;;16.53;10.50;;;;;;;;;;5113902;28;20481;-55
2021/03/02 10:02:57;;;;;;;10.77;9.00;;;;;;;;;;5114147;28;20418;-55
2021/03/02 10:05:31;;;;;;;14.53;10.40;;;;;;;;;;5113671;28;20039;-55
2021/03/02 10:07:58;;;;;;;16.47;11.27;;;;;;;;;;5113880;28;20020;-55
2021/03/02 10:10:38;;;;;;;16.50;11.10;;;;;;;;;;5113957;28;20027;-55
2021/03/02 10:13:05;;;;;;;14.40;10.17;;;;;;;;;;5113707;28;20101;-55
2021/03/02 10:15:32;;;;;;;13.43;10.57;;;;;;;;;;5113290;28;20024;-55
2021/03/02 10:18:03;;;;;;;15.70;11.03;;;;;;;;;;5113753;28;20020;-55
2021/03/02 10:20:34;;;;;;;15.00;12.53;;;;;;;;;;5113494;28;20031;-55
2021/03/02 10:23:01;;;;;;;17.63;12.37;;;;;;;;;;5113555;28;20012;-55
2021/03/02 10:25:39;;;;;;;15.83;13.57;;;;;;;;;;5113354;28;20181;-55
2021/03/02 10:28:09;;;;;;;19.23;13.23;;;;;;;;;;5113591;28;20423;-55
2021/03/02 10:30:36;;;;;;;15.97;11.90;;;;;;;;;;5113511;28;20032;-55
2021/03/02 10:33:03;;;;;;;17.07;12.00;;;;;;;;;;5113499;28;20385;-55
2021/03/02 10:35:29;;;;;;;15.53;10.93;;;;;;;;;;5113289;28;20023;-55
2021/03/02 10:37:56;;;;;;;14.30;11.40;;;;;;;;;;5113248;28;20030;-55
2021/03/02 10:40:23;;;;;;;14.23;11.43;;;;;;;;;;5113392;28;20439;-55
2021/03/02 10:42:52;;;;;;;15.93;12.33;;;;;;;;;;5113331;28;20028;-55
2021/03/02 10:45:19;;;;;;;17.60;11.70;;;;;;;;;;5113216;28;20032;-55
2021/03/02 10:47:49;;;;;;;14.50;11.57;;;;;;;;;;5113301;28;20159;-55
2021/03/02 10:50:16;;;;;;;13.83;10.43;;;;;;;;;;5113358;28;20039;-55
2021/03/02 10:52:43;;;;;;;18.63;11.23;;;;;;;;;;5113138;28;20306;-55
2021/03/02 10:55:10;;;;;;;14.60;12.40;;;;;;;;;;5113117;28;20028;-55
2021/03/02 10:57:37;;;;;;;14.40;10.57;;;;;;;;;;5113875;27;20075;-55
2021/03/02 11:00:05;;;;;;;15.27;11.30;;;;;;;;;;5113199;28;20031;-55
2021/03/02 11:02:31;;;;;;;14.93;11.90;;;;;;;;;;5113108;28;20260;-55
2021/03/02 11:04:58;;;;;;;16.90;11.30;;;;;;;;;;5112953;28;20288;-55
2021/03/02 11:07:25;;;;;;;16.53;12.40;;;;;;;;;;5094807;28;20819;-55
2021/03/02 11:09:52;;;;;;;19.57;13.67;;;;;;;;;;5113185;28;20252;-55
2021/03/02 11:12:19;;;;;;;18.07;13.27;;;;;;;;;;5113071;28;20035;-55
2021/03/02 11:14:47;;;;;;;13.77;11.57;;;;;;;;;;5112907;28;20769;-55
2021/03/02 11:17:14;;;;;;;14.87;11.20;;;;;;;;;;5112797;28;20248;-55
2021/03/02 11:19:41;;;;;;;17.63;13.77;;;;;;;;;;5112857;28;20611;-55
2021/03/02 11:22:08;;;;;;;16.73;12.00;;;;;;;;;;5112729;28;20259;-55
2021/03/02 11:24:37;;;;;;;19.17;12.03;;;;;;;;;;5112637;28;20292;-55
2021/03/02 11:27:04;;;;;;;20.73;14.13;;;;;;;;;;5114167;28;20243;-55
2021/03/02 11:29:31;;;;;;;16.63;12.83;;;;;;;;;;5116775;28;20275;-55
2021/03/02 11:31:58;;;;;;;16.90;12.43;;;;;;;;;;5116933;28;20244;-55
2021/03/02 11:34:25;;;;;;;16.90;12.93;;;;;;;;;;5116776;28;20248;-55
2021/03/02 11:36:51;;;;;;;19.30;13.90;;;;;;;;;;5116672;28;20256;-55
2021/03/02 11:39:18;;;;;;;20.87;14.77;;;;;;;;;;5116767;28;20253;-55
2021/03/02 11:41:45;;;;;;;18.87;14.80;;;;;;;;;;5116584;28;20255;-55
2021/03/02 11:44:12;;;;;;;20.70;15.97;;;;;;;;;;5116769;28;20316;-55
2021/03/02 11:46:39;;;;;;;22.80;14.47;;;;;;;;;;5116591;28;20260;-55
2021/03/02 11:49:05;;;;;;;19.33;14.80;;;;;;;;;;5116555;28;20256;-55
2021/03/02 11:51:32;;;;;;;25.77;16.67;;;;;;;;;;5116500;28;20299;-55
2021/03/02 11:53:59;;;;;;;19.93;15.33;;;;;;;;;;5116351;28;20252;-55
2021/03/02 11:56:26;;;;;;;22.63;16.03;;;;;;;;;;5117261;27;20259;-55
2021/03/02 11:58:53;;;;;;;22.90;14.00;;;;;;;;;;5116316;28;20263;-55
2021/03/02 12:01:20;;;;;;;20.33;15.23;;;;;;;;;;5116169;28;20259;-55
2021/03/02 12:03:46;;;;;;;19.70;14.30;;;;;;;;;;5116125;28;20266;-55
2021/03/02 12:06:13;;;;;;;19.73;15.63;;;;;;;;;;5116140;28;20345;-55
2021/03/02 12:08:40;;;;;;;21.20;15.23;;;;;;;;;;5115957;28;20276;-55
2021/03/02 12:11:10;;;;;;;23.53;14.10;;;;;;;;;;5116073;28;20256;-55
2021/03/02 12:13:36;;;;;;;15.97;12.70;;;;;;;;;;5115871;28;20637;-55
2021/03/02 12:16:03;;;;;;;19.40;15.53;;;;;;;;;;5115939;28;20244;-55
2021/03/02 12:18:30;;;;;;;20.23;14.23;;;;;;;;;;5115997;28;20726;-55
2021/03/02 12:20:57;;;;;;;24.27;17.10;;;;;;;;;;5115823;28;20260;-55
2021/03/02 12:23:24;;;;;;;21.90;16.77;;;;;;;;;;5115816;28;20323;-55
2021/03/02 12:25:51;;;;;;;20.13;15.03;;;;;;;;;;5115695;28;20311;-55
2021/03/02 12:28:17;;;;;;;19.53;15.10;;;;;;;;;;5115739;28;20256;-55
2021/03/02 12:30:44;;;;;;;20.23;14.80;;;;;;;;;;5115702;28;20284;-55
2021/03/02 12:33:11;;;;;;;20.63;15.43;;;;;;;;;;5115616;28;20268;-55
2021/03/02 12:35:38;;;;;;;21.87;14.73;;;;;;;;;;5115604;28;20279;-55
2021/03/02 12:38:05;;;;;;;21.93;14.47;;;;;;;;;;5096933;28;20260;-55
2021/03/02 12:40:32;;;;;;;21.17;16.03;;;;;;;;;;5115535;28;20248;-55
2021/03/02 12:42:59;;;;;;;20.73;14.60;;;;;;;;;;5115491;28;20347;-55
2021/03/02 12:45:26;;;;;;;22.33;15.63;;;;;;;;;;5114440;28;20446;-55
2021/03/02 12:47:53;;;;;;;21.83;14.70;;;;;;;;;;5115380;28;20309;-55
2021/03/02 12:50:19;;;;;;;21.67;15.87;;;;;;;;;;5115351;28;20735;-55
2021/03/02 12:52:46;;;;;;;22.50;15.17;;;;;;;;;;5115243;28;20259;-55
2021/03/02 12:55:13;;;;;;;19.27;14.67;;;;;;;;;;5115272;28;20256;-55
2021/03/02 12:57:40;;;;;;;22.47;15.70;;;;;;;;;;5116000;27;20283;-55
2021/03/02 13:00:08;;;;;;;25.43;16.80;;;;;;;;;;5114897;28;20306;-55
2021/03/02 13:02:40;;;;;;;21.43;16.03;;;;;;;;;;5115153;28;20240;-55
2021/03/02 13:05:08;;;;;;;19.17;14.57;;;;;;;;;;5115121;28;20682;-55
2021/03/02 13:07:36;;;;;;;19.30;14.67;;;;;;;;;;5114939;28;20336;-55
2021/03/02 13:10:04;;;;;;;21.70;15.73;;;;;;;;;;5096587;28;20762;-55
2021/03/02 13:12:31;;;;;;;24.00;16.13;;;;;;;;;;5114937;28;20248;-55
2021/03/02 13:14:58;;;;;;;23.87;15.67;;;;;;;;;;5114743;28;20347;-55
2021/03/02 13:17:24;;;;;;;22.30;16.80;;;;;;;;;;5114876;28;20248;-55
2021/03/02 13:19:51;;;;;;;20.43;14.37;;;;;;;;;;5114686;28;20258;-55
2021/03/02 13:22:19;;;;;;;24.77;18.10;;;;;;;;;;5114647;28;20642;-55
2021/03/02 13:24:45;;;;;;;23.40;15.90;;;;;;;;;;5114644;28;20356;-55
2021/03/02 13:27:13;;;;;;;30.00;17.50;;;;;;;;;;5114590;28;20264;-55
2021/03/02 13:29:44;;;;;;;24.70;16.60;;;;;;;;;;5114568;28;20745;-55
2021/03/02 13:32:17;;;;;;;22.60;16.37;;;;;;;;;;5114605;28;20305;-55
2021/03/02 13:34:45;;;;;;;22.80;17.87;;;;;;;;;;5114309;28;20244;-55
2021/03/02 13:37:15;;;;;;;28.57;18.53;;;;;;;;;;5114260;28;20753;-56
2021/03/02 13:39:43;;;;;;;26.87;16.43;;;;;;;;;;5114456;28;20240;-55
2021/03/02 13:42:10;;;;;;;23.90;16.23;;;;;;;;;;5114200;28;20269;-55
2021/03/02 13:44:37;;;;;;;21.40;15.90;;;;;;;;;;5114044;28;20321;-55
2021/03/02 13:47:04;;;;;;;30.80;19.03;;;;;;;;;;5114227;28;20264;-55
2021/03/02 13:49:33;;;;;;;26.53;19.43;;;;;;;;;;5113408;28;20637;-55
2021/03/02 13:52:00;;;;;;;21.23;17.70;;;;;;;;;;5114208;28;20279;-56
2021/03/02 13:54:27;;;;;;;25.30;17.17;;;;;;;;;;5113979;28;20259;-56
2021/03/02 13:56:54;;;;;;;23.70;18.10;;;;;;;;;;5115121;27;20043;-56
2021/03/02 13:59:21;;;;;;;26.97;18.47;;;;;;;;;;5114050;28;20023;-56
2021/03/02 14:01:52;;;;;;;25.10;19.10;;;;;;;;;;5113704;28;20062;-56
2021/03/02 14:04:19;;;;;;;22.70;17.07;;;;;;;;;;5113579;28;20389;-56
2021/03/02 14:06:46;;;;;;;20.43;16.27;;;;;;;;;;5113922;28;20055;-56
2021/03/02 14:09:14;;;;;;;22.80;16.47;;;;;;;;;;5113677;28;20019;-56
2021/03/02 14:11:42;;;;;;;24.30;16.80;;;;;;;;;;5113626;28;20103;-56
2021/03/02 14:14:09;;;;;;;24.83;18.33;;;;;;;;;;5113601;28;20076;-56
2021/03/02 14:16:36;;;;;;;22.13;17.27;;;;;;;;;;5113627;28;20107;-56
2021/03/02 14:19:04;;;;;;;26.90;16.63;;;;;;;;;;5113740;28;20020;-56
2021/03/02 14:21:32;;;;;;;20.70;16.30;;;;;;;;;;5113647;28;20023;-56
2021/03/02 14:24:01;;;;;;;19.73;14.97;;;;;;;;;;5113221;28;20028;-56
2021/03/02 14:26:30;;;;;;;21.60;15.20;;;;;;;;;;5113470;28;20113;-56
2021/03/02 14:28:57;;;;;;;23.83;14.77;;;;;;;;;;5113590;28;20016;-56
2021/03/02 14:31:24;;;;;;;23.30;15.70;;;;;;;;;;5113301;28;20039;-56
2021/03/02 14:33:52;;;;;;;20.57;15.83;;;;;;;;;;5113408;28;20047;-56
2021/03/02 14:36:19;;;;;;;23.57;15.40;;;;;;;;;;5113472;28;20103;-56
2021/03/02 14:38:46;;;;;;;17.87;14.17;;;;;;;;;;5113467;28;20421;-56